createdAt,value
2023-01-05T00:01:05.437Z,11.20
2023-01-05T00:03:32.111Z,11.20
2023-01-05T00:06:03.378Z,11.20
2023-01-05T00:08:36.361Z,11.30
2023-01-05T00:11:25.879Z,11.30
2023-01-05T00:14:10.946Z,11.40
2023-01-05T00:16:56.087Z,11.40
2023-01-05T00:19:41.276Z,11.30
2023-01-05T00:22:38.553Z,11.30
2023-01-05T00:25:12.219Z,11.30
2023-01-05T00:27:40.647Z,11.20
2023-01-05T00:30:08.209Z,11.20
2023-01-05T00:32:34.991Z,11.20
2023-01-05T00:35:01.865Z,11.10
2023-01-05T00:37:30.740Z,11.10
2023-01-05T00:39:57.398Z,11.10
2023-01-05T00:42:24.171Z,11.00
2023-01-05T00:44:52.251Z,10.90
2023-01-05T00:47:18.961Z,10.80
2023-01-05T00:49:45.891Z,10.70
2023-01-05T00:52:13.078Z,10.60
2023-01-05T00:54:39.763Z,10.50
2023-01-05T00:57:07.269Z,10.50
2023-01-05T00:59:35.210Z,10.40
2023-01-05T01:02:02.095Z,10.40
2023-01-05T01:04:30.815Z,10.30
2023-01-05T01:06:57.563Z,10.30
2023-01-05T01:09:24.247Z,10.30
2023-01-05T01:14:17.198Z,10.20
2023-01-05T01:16:44.034Z,10.10
2023-01-05T01:19:15.180Z,10.10
2023-01-05T01:21:42.459Z,10.10
2023-01-05T01:24:09.465Z,10.00
2023-01-05T01:26:36.203Z,10.00
2023-01-05T01:29:02.981Z,10.00
2023-01-05T01:31:29.647Z,9.90
2023-01-05T01:33:58.021Z,9.80
2023-01-05T01:36:24.698Z,9.80
2023-01-05T01:38:51.539Z,9.80
2023-01-05T01:41:18.499Z,9.70
2023-01-05T01:43:53.584Z,9.70
2023-01-05T01:46:22.279Z,9.60
2023-01-05T01:49:00.817Z,9.60
2023-01-05T01:51:44.464Z,9.50
2023-01-05T01:54:13.240Z,9.50
2023-01-05T01:56:51.404Z,9.40
2023-01-05T01:59:18.447Z,9.50
2023-01-05T02:01:45.400Z,9.50
2023-01-05T02:04:12.254Z,9.40
2023-01-05T02:06:39.878Z,9.30
2023-01-05T02:09:06.556Z,9.40
2023-01-05T02:11:44.078Z,9.30
2023-01-05T02:14:33.452Z,9.20
2023-01-05T02:17:23.441Z,9.20
2023-01-05T02:20:28.205Z,9.20
2023-01-05T02:23:22.349Z,9.10
2023-01-05T02:26:01.507Z,9.10
2023-01-05T02:28:35.580Z,9.10
2023-01-05T02:31:25.187Z,9.10
2023-01-05T02:34:18.863Z,9.00
2023-01-05T02:37:07.927Z,9.10
2023-01-05T02:39:41.634Z,9.00
2023-01-05T02:42:11.126Z,9.00
2023-01-05T02:44:38.790Z,9.00
2023-01-05T02:47:06.599Z,9.00
2023-01-05T02:49:38.530Z,9.00
2023-01-05T02:52:05.846Z,9.00
2023-01-05T02:54:38.282Z,9.00
2023-01-05T02:57:12.220Z,9.10
2023-01-05T02:59:44.271Z,9.10
2023-01-05T03:02:17.588Z,9.10
2023-01-05T03:04:46.496Z,9.20
2023-01-05T03:07:18.825Z,9.20
2023-01-05T03:09:45.579Z,9.20
2023-01-05T03:12:53.349Z,9.20
2023-01-05T03:15:25.657Z,9.20
2023-01-05T03:17:58.682Z,9.20
2023-01-05T03:20:28.082Z,9.20
2023-01-05T03:23:14.596Z,9.30
2023-01-05T03:25:59.801Z,9.30
2023-01-05T03:29:06.887Z,9.30
2023-01-05T03:31:54.598Z,9.30
2023-01-05T03:35:01.001Z,9.30
2023-01-05T03:37:37.274Z,9.30
2023-01-05T03:40:07.011Z,9.30
2023-01-05T03:42:36.626Z,9.30
2023-01-05T03:45:03.557Z,9.30
2023-01-05T03:47:31.245Z,9.40
2023-01-05T03:49:58.561Z,9.30
2023-01-05T03:52:25.237Z,9.40
2023-01-05T03:54:52.031Z,9.40
2023-01-05T03:57:18.799Z,9.40
2023-01-05T03:59:45.568Z,9.40
2023-01-05T04:02:12.357Z,9.40
2023-01-05T04:04:39.109Z,9.40
2023-01-05T04:07:08.632Z,9.40
2023-01-05T04:09:36.018Z,9.40
2023-01-05T04:12:03.609Z,9.50
2023-01-05T04:14:34.006Z,9.40
2023-01-05T04:17:00.709Z,9.50
2023-01-05T04:19:27.500Z,9.50
2023-01-05T04:21:55.782Z,9.50
2023-01-05T04:24:23.759Z,9.60
2023-01-05T04:26:50.495Z,9.50
2023-01-05T04:29:19.675Z,9.60
2023-01-05T04:31:49.086Z,9.60
2023-01-05T04:34:15.881Z,9.60
2023-01-05T04:36:44.145Z,9.60
2023-01-05T04:39:15.718Z,9.60
2023-01-05T04:41:42.601Z,9.60
2023-01-05T04:44:10.044Z,9.50
2023-01-05T04:46:37.847Z,9.50
2023-01-05T04:49:04.566Z,9.50
2023-01-05T04:51:31.462Z,9.50
2023-01-05T04:53:58.494Z,9.50
2023-01-05T04:56:25.373Z,9.50
2023-01-05T04:58:52.130Z,9.40
2023-01-05T05:01:19.161Z,9.50
2023-01-05T05:03:50.572Z,9.50
2023-01-05T05:06:19.587Z,9.50
2023-01-05T05:08:48.255Z,9.50
2023-01-05T05:11:15.389Z,9.40
2023-01-05T05:13:45.521Z,9.40
2023-01-05T05:16:13.258Z,9.50
2023-01-05T05:18:41.384Z,9.50
2023-01-05T05:21:11.374Z,9.40
2023-01-05T05:23:39.472Z,9.50
2023-01-05T05:26:06.310Z,9.40
2023-01-05T05:28:33.882Z,9.40
2023-01-05T05:31:00.974Z,9.40
2023-01-05T05:33:27.880Z,9.40
2023-01-05T05:35:54.581Z,9.40
2023-01-05T05:38:21.259Z,9.40
2023-01-05T05:40:50.976Z,9.40
2023-01-05T05:43:17.712Z,9.40
2023-01-05T05:45:50.340Z,9.40
2023-01-05T05:48:18.052Z,9.40
2023-01-05T05:50:45.237Z,9.50
2023-01-05T05:53:11.929Z,9.50
2023-01-05T05:55:38.614Z,9.50
2023-01-05T05:58:05.409Z,9.50
2023-01-05T06:00:32.090Z,9.50
2023-01-05T06:02:58.877Z,9.50
2023-01-05T06:05:25.728Z,9.50
2023-01-05T06:07:52.415Z,9.50
2023-01-05T06:10:19.079Z,9.50
2023-01-05T06:12:45.862Z,9.50
2023-01-05T06:15:12.588Z,9.50
2023-01-05T06:17:39.392Z,9.50
2023-01-05T06:20:06.972Z,9.50
2023-01-05T06:22:33.609Z,9.50
2023-01-05T06:25:00.288Z,9.40
2023-01-05T06:27:27.013Z,9.40
2023-01-05T06:29:53.746Z,9.40
2023-01-05T06:32:20.551Z,9.40
2023-01-05T06:34:47.326Z,9.40
2023-01-05T06:37:14.161Z,9.40
2023-01-05T06:39:40.991Z,9.40
2023-01-05T06:42:07.745Z,9.40
2023-01-05T06:44:34.403Z,9.50
2023-01-05T06:47:01.115Z,9.40
2023-01-05T06:49:27.876Z,9.50
2023-01-05T06:51:55.077Z,9.40
2023-01-05T06:54:21.835Z,9.40
2023-01-05T06:56:48.490Z,9.40
2023-01-05T06:59:15.351Z,9.40
2023-01-05T07:01:42.155Z,9.40
2023-01-05T07:04:08.997Z,9.50
2023-01-05T07:06:36.083Z,9.50
2023-01-05T07:09:03.029Z,9.40
2023-01-05T07:11:29.799Z,9.40
2023-01-05T07:13:56.530Z,9.40
2023-01-05T07:16:23.266Z,9.40
2023-01-05T07:18:49.971Z,9.40
2023-01-05T07:21:16.670Z,9.40
2023-01-05T07:23:43.322Z,9.50
2023-01-05T07:26:10.019Z,9.50
2023-01-05T07:28:37.161Z,9.40
2023-01-05T07:31:04.111Z,9.50
2023-01-05T07:33:36.066Z,9.40
2023-01-05T07:36:06.392Z,9.40
2023-01-05T07:38:33.330Z,9.40
2023-01-05T07:41:01.118Z,9.40
2023-01-05T07:43:28.062Z,9.40
2023-01-05T07:46:01.508Z,9.40
2023-01-05T07:48:28.322Z,9.40
2023-01-05T07:51:01.682Z,9.40
2023-01-05T07:53:29.753Z,9.50
2023-01-05T07:56:00.119Z,9.50
2023-01-05T07:58:26.983Z,9.50
2023-01-05T08:00:54.777Z,9.50
2023-01-05T08:03:21.743Z,9.50
2023-01-05T08:05:48.427Z,9.50
2023-01-05T08:08:20.511Z,9.50
2023-01-05T08:10:50.761Z,9.50
2023-01-05T08:13:36.003Z,9.40
2023-01-05T08:16:02.979Z,9.40
2023-01-05T08:18:29.760Z,9.40
2023-01-05T08:20:57.613Z,9.40
2023-01-05T08:23:26.726Z,9.40
2023-01-05T08:25:54.549Z,9.40
2023-01-05T08:28:21.595Z,9.40
2023-01-05T08:30:48.401Z,9.40
2023-01-05T08:33:16.216Z,9.50
2023-01-05T08:35:43.670Z,9.50
2023-01-05T08:38:10.927Z,9.50
2023-01-05T08:40:37.906Z,9.50
2023-01-05T08:43:05.265Z,9.50
2023-01-05T08:45:32.942Z,9.50
2023-01-05T08:48:01.639Z,9.50
2023-01-05T08:50:28.405Z,9.50
2023-01-05T08:52:55.151Z,9.50
2023-01-05T08:55:21.899Z,9.60
2023-01-05T08:57:48.551Z,9.60
2023-01-05T09:00:17.314Z,9.60
2023-01-05T09:02:44.924Z,9.60
2023-01-05T09:05:11.791Z,9.60
2023-01-05T09:07:39.283Z,9.60
2023-01-05T09:10:07.302Z,9.60
2023-01-05T09:12:38.197Z,9.60
2023-01-05T09:15:05.350Z,9.60
2023-01-05T09:17:32.770Z,9.60
2023-01-05T09:20:03.139Z,9.70
2023-01-05T09:22:31.754Z,9.70
2023-01-05T09:24:58.483Z,9.70
2023-01-05T09:27:25.722Z,9.70
2023-01-05T09:29:52.584Z,9.70
2023-01-05T09:32:19.396Z,9.70
2023-01-05T09:34:46.806Z,9.80
2023-01-05T09:37:13.672Z,9.80
2023-01-05T09:39:40.469Z,9.80
2023-01-05T09:42:07.388Z,9.80
2023-01-05T09:44:39.005Z,9.80
2023-01-05T09:47:23.207Z,9.90
2023-01-05T09:49:50.209Z,9.90
2023-01-05T09:52:18.151Z,9.90
2023-01-05T09:54:44.877Z,9.90
2023-01-05T09:57:19.631Z,9.90
2023-01-05T10:00:00.708Z,9.90
2023-01-05T10:03:11.065Z,10.00
2023-01-05T10:06:00.806Z,10.20
2023-01-05T10:08:34.375Z,10.20
2023-01-05T10:11:39.739Z,10.10
2023-01-05T10:14:18.826Z,10.10
2023-01-05T10:16:45.758Z,10.20
2023-01-05T10:19:17.062Z,10.30
2023-01-05T10:21:49.833Z,10.30
2023-01-05T10:24:22.179Z,10.40
2023-01-05T10:29:48.926Z,10.30
2023-01-05T10:32:24.551Z,10.30
2023-01-05T10:35:02.638Z,10.30
2023-01-05T10:37:48.788Z,10.30
2023-01-05T10:40:45.052Z,10.30
2023-01-05T10:43:17.943Z,10.30
2023-01-05T10:46:19.851Z,10.30
2023-01-05T10:48:34.770Z,10.20
2023-01-05T10:51:01.515Z,10.30
2023-01-05T10:53:28.652Z,10.30
2023-01-05T10:56:14.554Z,10.30
2023-01-05T10:58:45.089Z,10.40
2023-01-05T11:01:17.979Z,10.40
2023-01-05T11:06:34.301Z,10.50
2023-01-05T11:09:22.015Z,10.50
2023-01-05T11:11:57.142Z,10.50
2023-01-05T11:14:23.834Z,10.40
2023-01-05T11:16:54.154Z,10.40
2023-01-05T11:19:29.692Z,10.40
2023-01-05T11:22:01.663Z,10.40
2023-01-05T11:24:35.361Z,10.50
2023-01-05T11:27:03.509Z,10.50
2023-01-05T11:29:30.585Z,10.50
2023-01-05T11:32:01.110Z,10.50
2023-01-05T11:34:51.691Z,10.60
2023-01-05T11:37:28.548Z,10.60
2023-01-05T11:40:03.429Z,10.70
2023-01-05T11:42:34.152Z,10.70
2023-01-05T11:45:07.753Z,10.80
2023-01-05T11:47:44.965Z,10.90
2023-01-05T11:50:28.782Z,10.90
2023-01-05T11:52:57.107Z,11.00
2023-01-05T11:55:34.129Z,11.00
2023-01-05T11:58:14.464Z,10.90
2023-01-05T12:01:18.010Z,10.90
2023-01-05T12:03:47.598Z,10.80
2023-01-05T12:06:46.690Z,10.80
2023-01-05T12:09:45.407Z,10.70
2023-01-05T12:12:23.993Z,10.70
2023-01-05T12:14:58.635Z,10.70
2023-01-05T12:17:48.271Z,10.70
2023-01-05T12:20:38.718Z,10.70
2023-01-05T12:23:08.472Z,10.70
2023-01-05T12:25:46.978Z,10.80
2023-01-05T12:29:30.158Z,10.90
2023-01-05T12:34:00.467Z,10.90
2023-01-05T12:35:19.321Z,10.90
2023-01-05T12:38:20.752Z,11.00
2023-01-05T12:41:05.837Z,11.00
2023-01-05T12:43:38.511Z,11.00
2023-01-05T12:46:30.331Z,11.00
2023-01-05T12:49:07.885Z,11.00
2023-01-05T12:51:38.186Z,11.00
2023-01-05T12:54:13.606Z,10.90
2023-01-05T12:57:07.672Z,10.90
2023-01-05T12:59:43.315Z,10.90
2023-01-05T13:02:21.166Z,10.80
2023-01-05T13:04:56.236Z,10.80
2023-01-05T13:07:32.364Z,10.80
2023-01-05T13:10:03.391Z,10.90
2023-01-05T13:12:31.617Z,10.90
2023-01-05T13:15:16.590Z,10.90
2023-01-05T13:17:46.710Z,10.90
2023-01-05T13:20:27.768Z,10.90
2023-01-05T13:23:06.354Z,10.80
2023-01-05T13:25:47.840Z,10.80
2023-01-05T13:28:19.477Z,10.80
2023-01-05T13:30:57.290Z,10.80
2023-01-05T13:33:55.513Z,10.70
2023-01-05T13:36:26.111Z,10.80
2023-01-05T13:39:10.809Z,10.80
2023-01-05T13:42:04.053Z,10.80
2023-01-05T13:44:46.246Z,10.70
2023-01-05T13:47:27.834Z,10.60
2023-01-05T13:50:19.910Z,10.60
2023-01-05T13:53:25.657Z,10.50
2023-01-05T13:56:01.147Z,10.50
2023-01-05T13:58:33.263Z,10.50
2023-01-05T14:00:59.992Z,10.50
2023-01-05T14:03:35.120Z,10.40
2023-01-05T14:06:04.229Z,10.40
2023-01-05T14:08:38.951Z,10.40
2023-01-05T14:11:10.683Z,10.20
2023-01-05T14:13:44.696Z,10.20
2023-01-05T14:16:41.200Z,10.20
2023-01-05T14:19:21.487Z,10.20
2023-01-05T14:21:51.267Z,10.20
2023-01-05T14:24:30.016Z,10.20
2023-01-05T14:27:01.341Z,10.20
2023-01-05T14:32:27.232Z,10.10
2023-01-05T14:35:09.317Z,10.20
2023-01-05T14:37:38.232Z,10.20
2023-01-05T14:40:38.614Z,10.20
2023-01-05T14:43:27.906Z,10.20
2023-01-05T14:46:09.545Z,10.20
2023-01-05T14:48:41.106Z,10.30
2023-01-05T14:51:17.603Z,10.30
2023-01-05T14:53:46.868Z,10.20
2023-01-05T14:56:22.738Z,10.30
2023-01-05T14:58:57.375Z,10.20
2023-01-05T15:04:16.425Z,10.20
2023-01-05T15:07:11.497Z,10.20
2023-01-05T15:09:50.713Z,10.10
2023-01-05T15:12:38.854Z,10.10
2023-01-05T15:15:28.196Z,10.20
2023-01-05T15:18:13.210Z,10.10
2023-01-05T15:20:46.183Z,10.20
2023-01-05T15:23:38.578Z,10.20
2023-01-05T15:26:11.479Z,10.20
2023-01-05T15:29:02.477Z,10.20
2023-01-05T15:31:32.793Z,10.10
2023-01-05T15:34:17.433Z,10.10
2023-01-05T15:37:19.699Z,10.10
2023-01-05T15:39:51.270Z,10.10
2023-01-05T15:42:30.723Z,10.10
2023-01-05T15:44:57.481Z,10.10
2023-01-05T15:47:26.293Z,10.10
2023-01-05T15:50:00.266Z,10.10
2023-01-05T15:52:39.949Z,10.10
2023-01-05T15:55:15.361Z,10.10
2023-01-05T15:57:42.446Z,10.10
2023-01-05T16:00:34.478Z,10.10
2023-01-05T16:03:01.569Z,10.10
2023-01-05T16:05:35.738Z,10.10
2023-01-05T16:08:08.211Z,10.10
2023-01-05T16:10:43.252Z,10.10
2023-01-05T16:13:16.971Z,10.10
2023-01-05T16:15:45.433Z,10.10
2023-01-05T16:18:15.875Z,10.10
2023-01-05T16:20:47.354Z,10.20
2023-01-05T16:23:24.482Z,10.20
2023-01-05T16:25:56.141Z,10.20
2023-01-05T16:28:23.486Z,10.20
2023-01-05T16:30:51.614Z,10.20
2023-01-05T16:33:53.279Z,10.20
2023-01-05T16:36:23.280Z,10.20
2023-01-05T16:38:50.226Z,10.20
2023-01-05T16:41:29.887Z,10.30
2023-01-05T16:44:03.434Z,10.30
2023-01-05T16:46:41.615Z,10.30
2023-01-05T16:49:46.382Z,10.30
2023-01-05T16:52:27.142Z,10.30
2023-01-05T16:55:27.135Z,10.40
2023-01-05T16:57:54.509Z,10.30
2023-01-05T17:00:36.598Z,10.40
2023-01-05T17:03:26.668Z,10.40
2023-01-05T17:05:53.966Z,10.40
2023-01-05T17:08:35.965Z,10.50
2023-01-05T17:11:07.927Z,10.40
2023-01-05T17:13:47.443Z,10.40
2023-01-05T17:16:14.570Z,10.40
2023-01-05T17:18:41.480Z,10.50
2023-01-05T17:21:08.352Z,10.50
2023-01-05T17:23:46.621Z,10.40
2023-01-05T17:26:17.768Z,10.40
2023-01-05T17:28:44.516Z,10.50
2023-01-05T17:31:11.280Z,10.50
2023-01-05T17:33:38.047Z,10.50
2023-01-05T17:36:04.951Z,10.50
2023-01-05T17:38:31.716Z,10.50
2023-01-05T17:40:58.560Z,10.50
2023-01-05T17:43:25.269Z,10.40
2023-01-05T17:45:52.102Z,10.50
2023-01-05T17:48:18.867Z,10.50
2023-01-05T17:50:45.540Z,10.40
2023-01-05T17:53:12.377Z,10.50
2023-01-05T17:55:39.139Z,10.50
2023-01-05T17:58:06.042Z,10.50
2023-01-05T18:00:34.870Z,10.50
2023-01-05T18:03:01.683Z,10.50
2023-01-05T18:05:28.839Z,10.50
2023-01-05T18:07:55.657Z,10.50
2023-01-05T18:10:24.410Z,10.50
2023-01-05T18:12:52.803Z,10.50
2023-01-05T18:15:19.670Z,10.60
2023-01-05T18:17:46.422Z,10.60
2023-01-05T18:20:14.391Z,10.70
2023-01-05T18:22:41.647Z,10.70
2023-01-05T18:25:08.673Z,10.60
2023-01-05T18:27:35.593Z,10.60
2023-01-05T18:30:03.516Z,10.60
2023-01-05T18:35:05.653Z,10.60
2023-01-05T18:37:41.465Z,10.60
2023-01-05T18:40:10.907Z,10.60
2023-01-05T18:42:38.608Z,10.50
2023-01-05T18:45:19.099Z,10.60
2023-01-05T18:47:46.679Z,10.60
2023-01-05T18:50:13.398Z,10.50
2023-01-05T18:52:40.099Z,10.60
2023-01-05T18:55:06.951Z,10.60
2023-01-05T18:57:34.011Z,10.60
2023-01-05T19:00:00.748Z,10.50
2023-01-05T19:02:28.418Z,10.50
2023-01-05T19:04:55.837Z,10.60
2023-01-05T19:07:22.892Z,10.50
2023-01-05T19:09:49.611Z,10.60
2023-01-05T19:12:16.561Z,10.60
2023-01-05T19:14:43.317Z,10.60
2023-01-05T19:17:09.958Z,10.60
2023-01-05T19:19:36.738Z,10.70
2023-01-05T19:22:03.457Z,10.60
2023-01-05T19:24:31.692Z,10.60
2023-01-05T19:26:58.519Z,10.70
2023-01-05T19:29:25.256Z,10.70
2023-01-05T19:31:51.966Z,10.70
2023-01-05T19:34:19.647Z,10.70
2023-01-05T19:36:46.695Z,10.70
2023-01-05T19:39:18.640Z,10.70
2023-01-05T19:41:46.977Z,10.70
2023-01-05T19:44:15.398Z,10.70
2023-01-05T19:46:42.474Z,10.70
2023-01-05T19:49:21.545Z,10.70
2023-01-05T19:51:48.398Z,10.70
2023-01-05T19:54:15.173Z,10.70
2023-01-05T19:56:42.582Z,10.70
2023-01-05T19:59:21.552Z,10.70
2023-01-05T20:01:48.568Z,10.80
2023-01-05T20:04:15.573Z,10.80
2023-01-05T20:06:44.203Z,10.70
2023-01-05T20:09:13.010Z,10.80
2023-01-05T20:11:43.093Z,10.70
2023-01-05T20:14:29.323Z,10.70
2023-01-05T20:17:07.872Z,10.70
2023-01-05T20:19:37.559Z,10.70
2023-01-05T20:22:06.085Z,10.70
2023-01-05T20:24:33.393Z,10.80
2023-01-05T20:27:02.562Z,10.80
2023-01-05T20:29:30.554Z,10.80
2023-01-05T20:31:57.989Z,10.70
2023-01-05T20:34:27.996Z,10.70
2023-01-05T20:36:54.710Z,10.70
2023-01-05T20:39:24.585Z,10.70
2023-01-05T20:41:52.826Z,10.70
2023-01-05T20:44:25.595Z,10.70
2023-01-05T20:46:53.799Z,10.70
2023-01-05T20:49:21.249Z,10.70
2023-01-05T20:51:48.038Z,10.70
2023-01-05T20:54:14.764Z,10.70
2023-01-05T20:56:43.494Z,10.70
2023-01-05T20:59:15.340Z,10.70
2023-01-05T21:01:42.075Z,10.70
2023-01-05T21:04:08.801Z,10.70
2023-01-05T21:06:35.491Z,10.70
2023-01-05T21:09:02.177Z,10.70
2023-01-05T21:11:29.616Z,10.70
2023-01-05T21:13:57.146Z,10.70
2023-01-05T21:16:32.729Z,10.70
2023-01-05T21:19:01.306Z,10.70
2023-01-05T21:21:28.396Z,10.70
2023-01-05T21:23:55.141Z,10.60
2023-01-05T21:26:22.073Z,10.60
2023-01-05T21:28:50.234Z,10.60
2023-01-05T21:31:20.668Z,10.60
2023-01-05T21:33:47.435Z,10.60
2023-01-05T21:36:17.034Z,10.60
2023-01-05T21:39:01.387Z,10.60
2023-01-05T21:41:52.006Z,10.60
2023-01-05T21:44:19.765Z,10.60
2023-01-05T21:46:46.785Z,10.60
2023-01-05T21:49:14.362Z,10.60
2023-01-05T21:52:00.160Z,10.70
2023-01-05T21:54:45.425Z,10.60
2023-01-05T21:57:12.127Z,10.70
2023-01-05T21:59:38.867Z,10.60
2023-01-05T22:02:05.588Z,10.60
2023-01-05T22:04:32.243Z,10.60
2023-01-05T22:06:59.049Z,10.60
2023-01-05T22:09:25.762Z,10.60
2023-01-05T22:11:52.487Z,10.60
2023-01-05T22:14:19.264Z,10.60
2023-01-05T22:16:46.133Z,10.60
2023-01-05T22:19:12.904Z,10.60
2023-01-05T22:21:39.693Z,10.60
2023-01-05T22:24:07.020Z,10.50
2023-01-05T22:26:33.688Z,10.50
2023-01-05T22:29:00.520Z,10.50
2023-01-05T22:31:28.900Z,10.40
2023-01-05T22:33:57.701Z,10.30
2023-01-05T22:36:24.903Z,10.30
2023-01-05T22:38:52.003Z,10.20
2023-01-05T22:41:20.679Z,10.20
2023-01-05T22:43:47.522Z,10.20
2023-01-05T22:46:19.177Z,10.10
2023-01-05T22:48:46.504Z,10.10
2023-01-05T22:51:15.937Z,10.10
2023-01-05T22:53:42.775Z,10.10
2023-01-05T22:56:11.175Z,10.10
2023-01-05T22:58:38.101Z,10.10
2023-01-05T23:01:13.949Z,10.10
2023-01-05T23:03:40.997Z,10.00
2023-01-05T23:06:08.221Z,10.00
2023-01-05T23:08:35.950Z,10.00
2023-01-05T23:11:07.586Z,10.00
2023-01-05T23:13:34.432Z,10.00
2023-01-05T23:16:01.124Z,10.00
2023-01-05T23:18:27.874Z,10.00
2023-01-05T23:20:55.442Z,10.00
2023-01-05T23:23:23.446Z,9.90
2023-01-05T23:25:50.956Z,9.90
2023-01-05T23:28:18.142Z,9.80
2023-01-05T23:30:49.829Z,9.80
2023-01-05T23:33:17.505Z,9.80
2023-01-05T23:35:44.482Z,9.80
2023-01-05T23:38:11.238Z,9.80
2023-01-05T23:40:42.399Z,9.80
2023-01-05T23:43:10.817Z,9.80
2023-01-05T23:45:37.853Z,9.80
2023-01-05T23:48:04.691Z,9.80
2023-01-05T23:50:31.652Z,9.80
2023-01-05T23:52:58.827Z,9.80
2023-01-05T23:55:25.723Z,9.80
2023-01-05T23:57:52.690Z,9.80
